createdAt,value
2024-02-08T00:02:51.905Z,-14.04
2024-02-08T00:07:55.792Z,-13.84
2024-02-08T00:12:59.612Z,-13.81
2024-02-08T00:18:03.727Z,-13.92
2024-02-08T00:23:11.396Z,-14.20
2024-02-08T00:28:15.750Z,-14.52
2024-02-08T00:33:19.527Z,-14.49
2024-02-08T00:38:23.408Z,-14.47
2024-02-08T00:43:27.386Z,-14.48
2024-02-08T00:48:31.508Z,-14.70
2024-02-08T00:53:35.481Z,-14.94
2024-02-08T00:58:39.211Z,-15.26
2024-02-08T01:03:43.049Z,-15.13
2024-02-08T01:08:46.890Z,-15.24
2024-02-08T01:13:54.100Z,-15.08
2024-02-08T01:18:58.327Z,-15.00
2024-02-08T01:24:02.155Z,-15.02
2024-02-08T01:29:09.115Z,-15.10
2024-02-08T01:34:14.638Z,-15.51
2024-02-08T01:39:24.755Z,-15.47
2024-02-08T01:44:28.432Z,-15.38
2024-02-08T01:49:34.345Z,-15.39
2024-02-08T01:54:46.052Z,-15.21
2024-02-08T01:59:54.957Z,-15.33
2024-02-08T02:04:59.642Z,-15.40
2024-02-08T02:10:04.197Z,-15.23
2024-02-08T02:15:08.494Z,-14.75
2024-02-08T02:20:20.705Z,-14.73
2024-02-08T02:25:28.439Z,-14.69
2024-02-08T02:30:34.582Z,-14.43
2024-02-08T02:35:38.313Z,-14.01
2024-02-08T02:40:43.554Z,-13.84
2024-02-08T02:45:47.206Z,-13.63
2024-02-08T02:50:53.697Z,-13.47
2024-02-08T02:56:01.068Z,-13.55
2024-02-08T03:01:07.477Z,-13.50
2024-02-08T03:06:17.910Z,-13.49
2024-02-08T03:11:22.925Z,-13.51
2024-02-08T03:16:28.418Z,-13.42
2024-02-08T03:21:37.830Z,-13.26
2024-02-08T03:26:42.695Z,-13.04
2024-02-08T03:31:48.714Z,-12.86
2024-02-08T03:36:52.669Z,-12.81
2024-02-08T03:42:06.633Z,-12.51
2024-02-08T03:47:10.817Z,-12.33
2024-02-08T03:52:15.079Z,-12.09
2024-02-08T03:57:20.735Z,-11.82
2024-02-08T04:02:24.549Z,-11.53
2024-02-08T04:07:47.579Z,-11.08
2024-02-08T04:13:10.341Z,-10.79
2024-02-08T04:18:32.378Z,-10.35
2024-02-08T04:23:54.514Z,-9.95
2024-02-08T04:29:17.073Z,-9.52
2024-02-08T04:34:39.936Z,-9.00
2024-02-08T04:40:02.326Z,-8.64
2024-02-08T04:45:25.330Z,-8.43
2024-02-08T04:50:47.362Z,-7.77
2024-02-08T04:55:51.115Z,-7.27
2024-02-08T05:00:55.032Z,-6.87
2024-02-08T05:05:59.782Z,-6.53
2024-02-08T05:11:05.535Z,-6.11
2024-02-08T05:16:16.186Z,-5.62
2024-02-08T05:21:20.067Z,-5.27
2024-02-08T05:26:27.701Z,-4.98
2024-02-08T05:31:31.924Z,-4.79
2024-02-08T05:36:41.701Z,-4.68
2024-02-08T05:41:46.336Z,-4.59
2024-02-08T05:46:51.574Z,-4.51
2024-02-08T05:51:57.237Z,-4.42
2024-02-08T05:57:05.276Z,-4.36
2024-02-08T06:02:17.409Z,-4.25
2024-02-08T06:07:22.808Z,-4.14
2024-02-08T06:12:59.169Z,-4.03
2024-02-08T06:18:06.425Z,-3.86
2024-02-08T06:23:25.033Z,-3.68
2024-02-08T06:28:30.830Z,-3.55
2024-02-08T06:33:56.328Z,-3.31
2024-02-08T06:39:22.228Z,-3.16
2024-02-08T06:44:38.751Z,-3.05
2024-02-08T06:50:14.744Z,-3.03
2024-02-08T06:55:38.353Z,-2.88
2024-02-08T07:01:00.390Z,-2.79
2024-02-08T07:06:22.814Z,-2.68
2024-02-08T07:11:44.781Z,-2.59
2024-02-08T07:17:07.131Z,-2.47
2024-02-08T07:22:29.234Z,-2.40
2024-02-08T07:27:51.272Z,-2.24
2024-02-08T07:33:13.733Z,-2.10
2024-02-08T07:38:36.459Z,-1.95
2024-02-08T07:43:45.980Z,-1.81
2024-02-08T07:48:50.000Z,-1.69
2024-02-08T07:53:55.984Z,-1.74
2024-02-08T07:59:08.348Z,-1.82
2024-02-08T08:04:14.653Z,-1.80
2024-02-08T08:09:21.259Z,-1.80
2024-02-08T08:14:40.869Z,-1.73
2024-02-08T08:19:48.696Z,-1.63
2024-02-08T08:25:14.354Z,-1.73
2024-02-08T08:30:33.100Z,-1.62
2024-02-08T08:35:56.974Z,-1.54
2024-02-08T08:41:17.153Z,-1.51
2024-02-08T08:46:23.157Z,-1.50
2024-02-08T08:51:33.042Z,-1.51
2024-02-08T08:56:36.880Z,-1.55
2024-02-08T09:01:42.544Z,-1.51
2024-02-08T09:06:49.830Z,-1.50
2024-02-08T09:11:59.828Z,-1.54
2024-02-08T09:17:24.111Z,-1.57
2024-02-08T09:22:36.080Z,-1.61
2024-02-08T09:27:40.729Z,-1.63
2024-02-08T09:32:47.118Z,-1.63
2024-02-08T09:37:50.774Z,-1.63
2024-02-08T09:42:58.251Z,-1.59
2024-02-08T09:48:10.955Z,-1.62
2024-02-08T09:53:30.414Z,-1.66
2024-02-08T09:59:04.783Z,-1.70
2024-02-08T10:04:19.680Z,-1.84
2024-02-08T10:09:39.038Z,-1.82
2024-02-08T10:14:44.117Z,-1.82
2024-02-08T10:20:30.888Z,-1.84
2024-02-08T10:25:53.119Z,-1.83
2024-02-08T10:31:14.582Z,-1.81
2024-02-08T10:36:23.307Z,-1.81
2024-02-08T10:41:37.863Z,-1.83
2024-02-08T10:46:44.471Z,-1.91
2024-02-08T10:51:49.892Z,-1.98
2024-02-08T10:57:17.580Z,-2.06
2024-02-08T11:02:50.674Z,-2.09
2024-02-08T11:07:55.593Z,-2.11
2024-02-08T11:13:04.380Z,-2.14
2024-02-08T11:18:29.646Z,-2.17
2024-02-08T11:23:48.093Z,-2.25
2024-02-08T11:29:03.520Z,-2.34
2024-02-08T11:34:26.225Z,-2.40
2024-02-08T11:39:30.024Z,-2.51
2024-02-08T11:44:45.720Z,-2.55
2024-02-08T11:50:03.924Z,-2.64
2024-02-08T11:55:12.569Z,-2.76
2024-02-08T12:00:20.153Z,-2.83
2024-02-08T12:05:27.006Z,-2.88
2024-02-08T12:10:31.219Z,-2.94
2024-02-08T12:15:38.090Z,-2.92
2024-02-08T12:20:45.673Z,-2.96
2024-02-08T12:25:57.773Z,-3.03
2024-02-08T12:31:03.166Z,-3.11
2024-02-08T12:36:07.474Z,-3.09
2024-02-08T12:41:13.844Z,-3.13
2024-02-08T12:46:18.295Z,-3.48
2024-02-08T12:51:25.076Z,-3.38
2024-02-08T12:56:33.449Z,-3.74
2024-02-08T13:01:46.164Z,-3.51
2024-02-08T13:06:53.837Z,-3.62
2024-02-08T13:12:19.350Z,-3.83
2024-02-08T13:17:27.998Z,-4.05
2024-02-08T13:22:34.996Z,-4.09
2024-02-08T13:27:40.575Z,-4.14
2024-02-08T13:32:46.869Z,-4.16
2024-02-08T13:37:53.170Z,-4.28
2024-02-08T13:43:00.980Z,-4.44
2024-02-08T13:48:07.307Z,-4.41
2024-02-08T13:53:17.068Z,-4.47
2024-02-08T13:58:27.806Z,-4.68
2024-02-08T14:03:37.070Z,-5.22
2024-02-08T14:08:48.961Z,-5.07
2024-02-08T14:14:00.503Z,-5.14
2024-02-08T14:19:04.454Z,-5.22
2024-02-08T14:24:13.744Z,-5.19
2024-02-08T14:29:17.577Z,-5.16
2024-02-08T14:34:28.375Z,-5.05
2024-02-08T14:39:37.000Z,-4.95
2024-02-08T14:44:46.486Z,-4.96
2024-02-08T14:49:59.519Z,-5.04
2024-02-08T14:55:23.337Z,-5.02
2024-02-08T15:00:31.097Z,-5.09
2024-02-08T15:05:50.966Z,-4.99
2024-02-08T15:11:13.937Z,-4.92
2024-02-08T15:16:24.204Z,-4.94
2024-02-08T15:21:37.753Z,-4.93
2024-02-08T15:27:06.627Z,-4.85
2024-02-08T15:32:19.988Z,-4.82
2024-02-08T15:37:34.590Z,-5.03
2024-02-08T15:42:41.864Z,-4.83
2024-02-08T15:48:04.025Z,-4.72
2024-02-08T15:53:20.927Z,-4.67
2024-02-08T15:58:28.266Z,-4.64
2024-02-08T16:03:41.999Z,-4.61
2024-02-08T16:08:48.818Z,-4.47
2024-02-08T16:13:59.082Z,-4.48
2024-02-08T16:19:21.939Z,-4.42
2024-02-08T16:24:25.986Z,-4.30
2024-02-08T16:29:45.426Z,-4.26
2024-02-08T16:34:52.719Z,-4.20
2024-02-08T16:40:16.583Z,-4.12
2024-02-08T16:45:20.508Z,-4.08
2024-02-08T16:50:36.788Z,-4.04
2024-02-08T16:55:48.785Z,-4.02
2024-02-08T17:01:04.830Z,-4.25
2024-02-08T17:06:20.492Z,-3.90
2024-02-08T17:11:26.073Z,-3.91
2024-02-08T17:16:32.468Z,-3.98
2024-02-08T17:21:52.089Z,-4.07
2024-02-08T17:27:04.700Z,-4.11
2024-02-08T17:32:14.547Z,-4.14
2024-02-08T17:37:32.299Z,-4.19
2024-02-08T17:42:36.461Z,-4.18
2024-02-08T17:47:46.029Z,-4.26
2024-02-08T17:52:52.687Z,-4.29
2024-02-08T17:57:58.048Z,-4.38
2024-02-08T18:03:02.769Z,-4.45
2024-02-08T18:08:08.961Z,-4.54
2024-02-08T18:13:12.952Z,-4.61
2024-02-08T18:18:17.095Z,-4.72
2024-02-08T18:23:21.738Z,-4.83
2024-02-08T18:28:27.481Z,-4.90
2024-02-08T18:33:34.264Z,-5.10
2024-02-08T18:38:38.532Z,-5.23
2024-02-08T18:43:42.465Z,-5.33
2024-02-08T18:48:47.239Z,-5.32
2024-02-08T18:53:51.871Z,-5.31
2024-02-08T18:58:55.812Z,-5.25
2024-02-08T19:03:59.681Z,-5.15
2024-02-08T19:09:05.625Z,-5.30
2024-02-08T19:14:10.447Z,-5.03
2024-02-08T19:19:15.226Z,-5.05
2024-02-08T19:24:19.283Z,-5.05
2024-02-08T19:29:26.074Z,-5.03
2024-02-08T19:34:33.068Z,-4.99
2024-02-08T19:39:38.429Z,-4.86
2024-02-08T19:44:44.272Z,-4.75
2024-02-08T19:49:48.814Z,-4.71
2024-02-08T19:54:58.789Z,-4.72
2024-02-08T20:00:02.475Z,-4.70
2024-02-08T20:05:09.905Z,-4.66
2024-02-08T20:10:16.734Z,-4.68
2024-02-08T20:15:29.823Z,-4.72
2024-02-08T20:20:36.004Z,-4.78
2024-02-08T20:25:41.179Z,-4.82
2024-02-08T20:30:58.039Z,-4.68
2024-02-08T20:36:10.334Z,-4.61
2024-02-08T20:41:14.067Z,-4.49
2024-02-08T20:46:18.243Z,-4.41
2024-02-08T20:51:23.886Z,-4.38
2024-02-08T20:56:30.645Z,-4.23
2024-02-08T21:01:37.842Z,-4.15
2024-02-08T21:06:44.469Z,-4.07
2024-02-08T21:11:48.353Z,-4.06
2024-02-08T21:16:55.745Z,-4.11
2024-02-08T21:22:00.062Z,-4.14
2024-02-08T21:27:08.537Z,-4.14
2024-02-08T21:32:12.404Z,-4.14
2024-02-08T21:37:16.372Z,-4.15
2024-02-08T21:42:21.528Z,-4.19
2024-02-08T21:47:28.796Z,-4.23
2024-02-08T21:52:32.456Z,-4.31
2024-02-08T21:57:36.468Z,-4.38
2024-02-08T22:02:41.950Z,-4.41
2024-02-08T22:07:49.508Z,-4.38
2024-02-08T22:12:53.325Z,-4.36
2024-02-08T22:17:58.711Z,-4.36
2024-02-08T22:23:02.655Z,-4.41
2024-02-08T22:28:10.817Z,-4.48
2024-02-08T22:33:16.020Z,-4.50
2024-02-08T22:38:21.194Z,-4.59
2024-02-08T22:43:25.433Z,-4.63
2024-02-08T22:48:29.148Z,-4.66
2024-02-08T22:53:32.675Z,-4.64
2024-02-08T22:58:36.457Z,-4.67
2024-02-08T23:03:40.170Z,-4.74
2024-02-08T23:08:45.774Z,-4.77
2024-02-08T23:13:49.505Z,-4.81
2024-02-08T23:18:53.373Z,-4.85
2024-02-08T23:23:57.557Z,-4.88
2024-02-08T23:29:01.087Z,-4.85
2024-02-08T23:34:05.418Z,-4.79
2024-02-08T23:39:09.616Z,-4.69
2024-02-08T23:44:13.249Z,-4.64
2024-02-08T23:49:17.230Z,-4.68
2024-02-08T23:54:20.981Z,-4.61
2024-02-08T23:59:24.761Z,-4.61
